createdAt,value
2019-02-02T00:02:20.384Z,23.40
2019-02-02T00:05:06.496Z,23.40
2019-02-02T00:07:52.194Z,23.40
2019-02-02T00:10:37.831Z,23.50
2019-02-02T00:13:23.928Z,23.50
2019-02-02T00:16:09.843Z,23.60
2019-02-02T00:18:56.880Z,23.60
2019-02-02T00:21:43.188Z,23.60
2019-02-02T00:24:28.983Z,23.60
2019-02-02T00:27:15.195Z,23.60
2019-02-02T00:30:02.367Z,23.60
2019-02-02T00:32:48.663Z,23.70
2019-02-02T00:35:34.813Z,23.70
2019-02-02T00:38:21.112Z,23.70
2019-02-02T00:41:14.096Z,23.80
2019-02-02T00:44:00.363Z,23.80
2019-02-02T00:46:46.422Z,23.80
2019-02-02T00:49:32.275Z,23.80
2019-02-02T00:52:18.003Z,23.80
2019-02-02T00:55:04.843Z,23.80
2019-02-02T00:57:54.115Z,23.80
2019-02-02T01:00:39.087Z,23.80
2019-02-02T01:03:25.171Z,23.80
2019-02-02T01:06:11.271Z,23.80
2019-02-02T01:08:56.998Z,23.70
2019-02-02T01:11:43.266Z,23.70
2019-02-02T01:14:29.212Z,23.70
2019-02-02T01:17:15.267Z,23.60
2019-02-02T01:20:01.347Z,23.60
2019-02-02T01:22:48.059Z,23.60
2019-02-02T01:25:34.243Z,23.60
2019-02-02T01:28:20.146Z,23.60
2019-02-02T01:31:05.925Z,23.50
2019-02-02T01:33:52.211Z,23.60
2019-02-02T01:36:38.268Z,23.60
2019-02-02T01:39:24.019Z,23.60
2019-02-02T01:42:09.977Z,23.70
2019-02-02T01:44:56.119Z,23.70
2019-02-02T01:47:42.021Z,23.80
2019-02-02T01:50:28.070Z,23.80
2019-02-02T01:53:13.903Z,23.80
2019-02-02T01:55:59.976Z,23.70
2019-02-02T01:58:46.095Z,23.70
2019-02-02T02:01:32.192Z,23.70
2019-02-02T02:04:18.224Z,23.70
2019-02-02T02:07:05.783Z,23.70
2019-02-02T02:09:51.479Z,23.60
2019-02-02T02:12:37.367Z,23.60
2019-02-02T02:15:23.208Z,23.60
2019-02-02T02:18:09.098Z,23.60
2019-02-02T02:20:55.139Z,23.60
2019-02-02T02:23:41.244Z,23.60
2019-02-02T02:26:26.959Z,23.60
2019-02-02T02:29:12.753Z,23.60
2019-02-02T02:31:58.453Z,23.50
2019-02-02T02:34:44.579Z,23.50
2019-02-02T02:37:30.347Z,23.50
2019-02-02T02:40:18.560Z,23.50
2019-02-02T02:43:04.743Z,23.50
2019-02-02T02:45:52.457Z,23.40
2019-02-02T02:48:38.464Z,23.40
2019-02-02T02:51:24.423Z,23.40
2019-02-02T02:54:09.947Z,23.40
2019-02-02T02:56:56.780Z,23.30
2019-02-02T02:59:42.961Z,23.30
2019-02-02T03:02:29.035Z,23.30
2019-02-02T03:05:14.879Z,23.30
2019-02-02T03:08:00.777Z,23.30
2019-02-02T03:10:46.604Z,23.20
2019-02-02T03:13:32.881Z,23.30
2019-02-02T03:16:18.762Z,23.20
2019-02-02T03:19:04.991Z,23.20
2019-02-02T03:21:51.019Z,23.10
2019-02-02T03:24:36.899Z,23.20
2019-02-02T03:27:22.635Z,23.10
2019-02-02T03:30:11.403Z,23.10
2019-02-02T03:32:57.373Z,23.10
2019-02-02T03:35:43.379Z,23.10
2019-02-02T03:38:29.300Z,23.10
2019-02-02T03:41:15.163Z,23.00
2019-02-02T03:44:01.118Z,23.00
2019-02-02T03:46:46.947Z,23.00
2019-02-02T03:49:32.852Z,23.00
2019-02-02T03:52:19.028Z,23.00
2019-02-02T03:55:05.471Z,23.00
2019-02-02T03:57:51.153Z,22.90
2019-02-02T04:00:37.113Z,23.00
2019-02-02T04:03:22.773Z,23.00
2019-02-02T04:06:08.844Z,23.00
2019-02-02T04:08:55.020Z,23.10
2019-02-02T04:11:43.423Z,23.20
2019-02-02T04:14:29.100Z,23.30
2019-02-02T04:17:14.923Z,23.40
2019-02-02T04:20:01.035Z,23.50
2019-02-02T04:22:47.081Z,23.60
2019-02-02T04:25:33.007Z,23.60
2019-02-02T04:28:18.847Z,23.60
2019-02-02T04:31:04.875Z,23.60
2019-02-02T04:33:50.848Z,23.60
2019-02-02T04:36:37.303Z,23.60
2019-02-02T04:39:23.515Z,23.60
2019-02-02T04:42:09.371Z,23.50
2019-02-02T04:44:55.182Z,23.50
2019-02-02T04:47:41.427Z,23.50
2019-02-02T04:50:27.806Z,23.40
2019-02-02T04:53:13.985Z,23.40
2019-02-02T04:55:59.920Z,23.50
2019-02-02T04:58:46.358Z,23.50
2019-02-02T05:01:32.126Z,23.40
2019-02-02T05:04:18.359Z,23.40
2019-02-02T05:07:04.283Z,23.40
2019-02-02T05:09:49.987Z,23.40
2019-02-02T05:12:36.067Z,23.30
2019-02-02T05:15:22.281Z,23.30
2019-02-02T05:18:08.098Z,23.30
2019-02-02T05:20:54.067Z,23.30
2019-02-02T05:23:39.823Z,23.30
2019-02-02T05:26:25.803Z,23.20
2019-02-02T05:29:11.772Z,23.30
2019-02-02T05:31:57.683Z,23.20
2019-02-02T05:34:43.496Z,23.20
2019-02-02T05:37:29.883Z,23.20
2019-02-02T05:40:16.482Z,23.10
2019-02-02T05:43:02.296Z,23.10
2019-02-02T05:45:48.236Z,23.10
2019-02-02T05:48:33.931Z,23.10
2019-02-02T05:51:19.987Z,23.00
2019-02-02T05:54:05.829Z,23.00
2019-02-02T05:56:51.687Z,23.00
2019-02-02T05:59:37.823Z,23.00
2019-02-02T06:02:23.858Z,23.00
2019-02-02T06:05:10.328Z,22.90
2019-02-02T06:07:56.051Z,22.90
2019-02-02T06:10:42.025Z,22.90
2019-02-02T06:13:27.879Z,22.90
2019-02-02T06:16:13.979Z,22.90
2019-02-02T06:19:00.222Z,22.80
2019-02-02T06:21:46.676Z,22.80
2019-02-02T06:24:32.417Z,22.90
2019-02-02T06:27:18.327Z,23.00
2019-02-02T06:30:08.051Z,23.10
2019-02-02T06:32:54.084Z,23.20
2019-02-02T06:35:39.815Z,23.30
2019-02-02T06:38:26.323Z,23.40
2019-02-02T06:41:12.578Z,23.50
2019-02-02T06:43:58.719Z,23.50
2019-02-02T06:46:44.465Z,23.50
2019-02-02T06:49:30.538Z,23.60
2019-02-02T06:52:16.995Z,23.50
2019-02-02T06:55:03.511Z,23.50
2019-02-02T06:57:49.407Z,23.50
2019-02-02T07:00:35.684Z,23.40
2019-02-02T07:03:21.780Z,23.40
2019-02-02T07:06:07.484Z,23.40
2019-02-02T07:08:53.596Z,23.30
2019-02-02T07:11:40.083Z,23.40
2019-02-02T07:14:25.911Z,23.40
2019-02-02T07:17:11.763Z,23.40
2019-02-02T07:19:57.683Z,23.40
2019-02-02T07:22:43.797Z,23.40
2019-02-02T07:25:29.796Z,23.30
2019-02-02T07:28:15.631Z,23.40
2019-02-02T07:31:01.469Z,23.30
2019-02-02T07:33:47.623Z,23.30
2019-02-02T07:36:33.697Z,23.30
2019-02-02T07:39:20.392Z,23.30
2019-02-02T07:42:06.606Z,23.30
2019-02-02T07:44:53.226Z,23.20
2019-02-02T07:47:39.303Z,23.20
2019-02-02T07:50:25.444Z,23.20
2019-02-02T07:53:11.411Z,23.10
2019-02-02T07:55:57.458Z,23.10
2019-02-02T07:58:43.127Z,23.10
2019-02-02T08:01:28.885Z,23.10
2019-02-02T08:04:14.724Z,23.10
2019-02-02T08:07:00.884Z,23.10
2019-02-02T08:09:47.253Z,23.10
2019-02-02T08:12:33.984Z,23.00
2019-02-02T08:15:22.702Z,23.00
2019-02-02T08:18:08.683Z,23.00
2019-02-02T08:20:54.999Z,23.00
2019-02-02T08:23:41.142Z,23.00
2019-02-02T08:26:26.796Z,23.00
2019-02-02T08:29:13.012Z,23.10
2019-02-02T08:31:59.551Z,23.10
2019-02-02T08:34:45.767Z,23.30
2019-02-02T08:37:32.319Z,23.30
2019-02-02T08:40:18.661Z,23.40
2019-02-02T08:43:20.638Z,23.50
2019-02-02T08:46:07.516Z,23.60
2019-02-02T08:48:54.034Z,23.60
2019-02-02T08:51:40.447Z,23.60
2019-02-02T08:54:28.920Z,23.70
2019-02-02T08:57:37.274Z,23.70
2019-02-02T09:00:23.767Z,23.70
2019-02-02T09:03:09.532Z,23.70
2019-02-02T09:05:55.680Z,23.60
2019-02-02T09:08:42.172Z,23.60
2019-02-02T09:11:28.187Z,23.60
2019-02-02T09:14:14.264Z,23.60
2019-02-02T09:17:00.435Z,23.60
2019-02-02T09:19:46.809Z,23.50
2019-02-02T09:22:33.188Z,23.50
2019-02-02T09:25:19.688Z,23.60
2019-02-02T09:28:05.614Z,23.60
2019-02-02T09:30:51.544Z,23.70
2019-02-02T09:33:19.347Z,23.70
2019-02-02T09:35:47.016Z,23.70
2019-02-02T09:38:15.443Z,23.60
2019-02-02T09:40:42.574Z,23.60
2019-02-02T09:43:13.055Z,23.60
2019-02-02T09:45:43.763Z,23.60
2019-02-02T09:48:10.977Z,23.50
2019-02-02T09:50:38.163Z,23.50
2019-02-02T09:53:05.586Z,23.50
2019-02-02T09:55:34.482Z,23.50
2019-02-02T09:58:08.456Z,23.50
2019-02-02T10:00:34.721Z,23.60
2019-02-02T10:03:02.126Z,23.60
2019-02-02T10:05:30.256Z,23.70
2019-02-02T10:07:57.540Z,23.70
2019-02-02T10:10:42.172Z,23.70
2019-02-02T10:13:17.992Z,23.70
2019-02-02T10:15:46.121Z,23.60
2019-02-02T10:18:13.423Z,23.60
2019-02-02T10:20:40.695Z,23.60
2019-02-02T10:23:07.959Z,23.60
2019-02-02T10:25:45.804Z,23.70
2019-02-02T10:28:24.339Z,23.70
2019-02-02T10:31:02.615Z,23.70
2019-02-02T10:34:05.791Z,23.60
2019-02-02T10:36:34.110Z,23.60
2019-02-02T10:39:04.743Z,23.60
2019-02-02T10:41:34.072Z,23.60
2019-02-02T10:44:01.673Z,23.60
2019-02-02T10:46:29.171Z,23.60
2019-02-02T10:48:56.449Z,23.60
2019-02-02T10:51:46.178Z,23.60
2019-02-02T10:54:18.226Z,23.60
2019-02-02T10:56:45.759Z,23.50
2019-02-02T10:59:13.487Z,23.50
2019-02-02T11:01:50.791Z,23.50
2019-02-02T11:04:13.056Z,23.50
2019-02-02T11:06:40.618Z,23.40
2019-02-02T11:09:08.486Z,23.40
2019-02-02T11:11:36.397Z,23.50
2019-02-02T11:14:04.114Z,23.50
2019-02-02T11:16:31.731Z,23.50
2019-02-02T11:19:17.745Z,23.50
2019-02-02T11:22:04.094Z,23.50
2019-02-02T11:24:49.897Z,23.50
2019-02-02T11:27:35.740Z,23.60
2019-02-02T11:30:23.797Z,23.60
2019-02-02T11:33:09.711Z,23.70
2019-02-02T11:35:55.714Z,23.70
2019-02-02T11:38:42.017Z,23.80
2019-02-02T11:41:28.006Z,23.80
2019-02-02T11:44:13.980Z,23.80
2019-02-02T11:47:00.644Z,23.70
2019-02-02T11:49:47.144Z,23.70
2019-02-02T11:52:33.528Z,23.70
2019-02-02T11:55:19.795Z,23.60
2019-02-02T11:58:05.801Z,23.60
2019-02-02T12:00:51.686Z,23.60
2019-02-02T12:03:38.338Z,23.60
2019-02-02T12:06:24.590Z,23.50
2019-02-02T12:09:11.225Z,23.50
2019-02-02T12:11:38.757Z,23.50
2019-02-02T12:14:06.012Z,23.50
2019-02-02T12:16:33.323Z,23.40
2019-02-02T12:19:01.371Z,23.50
2019-02-02T12:21:28.809Z,23.50
2019-02-02T12:23:57.366Z,23.50
2019-02-02T12:26:25.075Z,23.50
2019-02-02T12:28:52.168Z,23.50
2019-02-02T12:31:19.552Z,23.50
2019-02-02T12:33:47.084Z,23.50
2019-02-02T12:36:14.302Z,23.40
2019-02-02T12:38:42.721Z,23.40
2019-02-02T12:41:11.311Z,23.50
2019-02-02T12:43:38.636Z,23.40
2019-02-02T12:46:06.108Z,23.40
2019-02-02T12:48:33.304Z,23.40
2019-02-02T12:51:00.768Z,23.40
2019-02-02T12:53:27.958Z,23.40
2019-02-02T12:55:55.275Z,23.40
2019-02-02T12:58:22.491Z,23.30
2019-02-02T13:00:49.822Z,23.40
2019-02-02T13:03:20.898Z,23.30
2019-02-02T13:05:49.371Z,23.30
2019-02-02T13:08:16.687Z,23.30
2019-02-02T13:10:43.882Z,23.30
2019-02-02T13:13:11.316Z,23.20
2019-02-02T13:15:38.804Z,23.30
2019-02-02T13:18:06.436Z,23.20
2019-02-02T13:20:33.727Z,23.30
2019-02-02T13:23:01.039Z,23.20
2019-02-02T13:25:28.247Z,23.20
2019-02-02T13:27:55.435Z,23.20
2019-02-02T13:30:41.534Z,23.20
2019-02-02T13:33:27.496Z,23.10
2019-02-02T13:36:13.412Z,23.20
2019-02-02T13:38:59.411Z,23.10
2019-02-02T13:41:45.411Z,23.10
2019-02-02T13:44:31.251Z,23.10
2019-02-02T13:47:17.207Z,23.10
2019-02-02T13:50:04.642Z,23.10
2019-02-02T13:52:51.041Z,23.00
2019-02-02T13:55:39.809Z,23.00
2019-02-02T13:58:25.004Z,23.00
2019-02-02T14:01:10.919Z,23.00
2019-02-02T14:03:56.735Z,23.00
2019-02-02T14:06:42.687Z,23.00
2019-02-02T14:09:29.008Z,23.00
2019-02-02T14:12:14.911Z,22.90
2019-02-02T14:15:01.319Z,22.90
2019-02-02T14:17:47.079Z,22.90
2019-02-02T14:20:32.863Z,22.90
2019-02-02T14:23:18.975Z,23.10
2019-02-02T14:26:05.068Z,23.10
2019-02-02T14:28:51.095Z,23.10
2019-02-02T14:31:37.587Z,23.20
2019-02-02T14:34:23.341Z,23.20
2019-02-02T14:37:09.370Z,23.20
2019-02-02T14:39:55.296Z,23.30
2019-02-02T14:42:41.199Z,23.30
2019-02-02T14:45:28.037Z,23.30
2019-02-02T14:48:14.491Z,23.20
2019-02-02T14:51:00.483Z,23.20
2019-02-02T14:53:46.553Z,23.20
2019-02-02T14:56:32.511Z,23.10
2019-02-02T14:59:18.875Z,23.10
2019-02-02T15:02:04.735Z,23.10
2019-02-02T15:04:50.913Z,23.00
2019-02-02T15:07:36.984Z,23.00
2019-02-02T15:10:24.419Z,23.00
2019-02-02T15:13:10.712Z,23.00
2019-02-02T15:15:56.931Z,23.00
2019-02-02T15:18:42.965Z,23.00
2019-02-02T15:21:29.147Z,23.00
2019-02-02T15:24:15.072Z,23.00
2019-02-02T15:27:01.531Z,23.00
2019-02-02T15:29:47.605Z,23.00
2019-02-02T15:32:33.632Z,23.00
2019-02-02T15:35:19.444Z,23.00
2019-02-02T15:38:05.517Z,22.90
2019-02-02T15:40:58.686Z,22.90
2019-02-02T15:46:15.811Z,22.90
2019-02-02T15:49:01.914Z,22.90
2019-02-02T15:51:48.131Z,22.90
2019-02-02T15:54:34.612Z,22.90
2019-02-02T15:57:20.660Z,22.90
2019-02-02T16:00:18.996Z,22.90
2019-02-02T16:03:05.611Z,22.90
2019-02-02T16:05:51.896Z,22.90
2019-02-02T16:08:38.275Z,22.80
2019-02-02T16:11:24.156Z,22.80
2019-02-02T16:14:10.708Z,22.80
2019-02-02T16:16:58.217Z,22.80
2019-02-02T16:19:44.065Z,22.80
2019-02-02T16:22:42.411Z,22.90
2019-02-02T16:25:35.311Z,22.90
2019-02-02T16:28:25.164Z,23.00
2019-02-02T16:31:12.983Z,23.10
2019-02-02T16:34:02.094Z,23.10
2019-02-02T16:36:46.340Z,23.10
2019-02-02T16:39:32.796Z,23.20
2019-02-02T16:42:18.824Z,23.20
2019-02-02T16:45:07.655Z,23.20
2019-02-02T16:47:53.668Z,23.20
2019-02-02T16:50:39.627Z,23.30
2019-02-02T16:53:25.499Z,23.20
2019-02-02T16:56:11.287Z,23.10
2019-02-02T16:58:57.152Z,23.10
2019-02-02T17:01:43.607Z,23.10
2019-02-02T17:04:29.675Z,23.10
2019-02-02T17:07:15.584Z,23.00
2019-02-02T17:10:01.295Z,23.00
2019-02-02T17:12:47.815Z,23.00
2019-02-02T17:15:34.218Z,23.00
2019-02-02T17:18:20.515Z,23.00
2019-02-02T17:21:06.895Z,23.10
2019-02-02T17:23:53.247Z,23.10
2019-02-02T17:26:41.443Z,23.10
2019-02-02T17:29:27.012Z,23.00
2019-02-02T17:32:13.355Z,23.00
2019-02-02T17:34:59.407Z,23.00
2019-02-02T17:37:45.639Z,23.00
2019-02-02T17:40:31.944Z,22.90
2019-02-02T17:43:17.993Z,23.00
2019-02-02T17:46:05.439Z,22.90
2019-02-02T17:48:51.379Z,22.90
2019-02-02T17:51:37.625Z,22.90
2019-02-02T17:54:23.435Z,23.00
2019-02-02T17:57:09.407Z,23.00
2019-02-02T17:59:55.680Z,23.00
2019-02-02T18:02:42.103Z,23.00
2019-02-02T18:05:28.299Z,22.90
2019-02-02T18:08:14.556Z,22.90
2019-02-02T18:11:00.440Z,22.90
2019-02-02T18:13:46.470Z,22.90
2019-02-02T18:16:32.555Z,22.80
2019-02-02T18:19:18.475Z,22.90
2019-02-02T18:22:04.356Z,22.90
2019-02-02T18:24:50.719Z,22.90
2019-02-02T18:27:36.791Z,22.80
2019-02-02T18:30:23.231Z,22.90
2019-02-02T18:33:09.111Z,22.90
2019-02-02T18:35:54.979Z,22.90
2019-02-02T18:38:41.003Z,23.00
2019-02-02T18:41:26.831Z,23.00
2019-02-02T18:44:12.543Z,23.10
2019-02-02T18:46:58.507Z,23.20
2019-02-02T18:49:44.227Z,23.30
2019-02-02T18:52:30.093Z,23.30
2019-02-02T18:55:19.380Z,23.40
2019-02-02T18:58:05.459Z,23.40
2019-02-02T19:00:51.233Z,23.40
2019-02-02T19:03:37.508Z,23.40
2019-02-02T19:06:23.303Z,23.50
2019-02-02T19:09:09.498Z,23.50
2019-02-02T19:11:56.119Z,23.40
2019-02-02T19:14:42.642Z,23.40
2019-02-02T19:17:28.656Z,23.30
2019-02-02T19:20:16.939Z,23.10
2019-02-02T19:23:03.012Z,22.90
2019-02-02T19:25:50.515Z,22.80
2019-02-02T19:28:39.973Z,22.70
2019-02-02T19:31:24.511Z,22.60
2019-02-02T19:34:10.355Z,22.50
2019-02-02T19:36:56.831Z,22.40
2019-02-02T19:39:45.164Z,22.30
2019-02-02T19:42:31.396Z,22.30
2019-02-02T19:45:19.635Z,22.40
2019-02-02T19:48:05.231Z,22.40
2019-02-02T19:50:51.202Z,22.40
2019-02-02T19:53:37.552Z,22.40
2019-02-02T19:56:23.415Z,22.50
2019-02-02T19:59:09.797Z,22.50
2019-02-02T20:01:55.603Z,22.50
2019-02-02T20:04:41.887Z,22.60
2019-02-02T20:07:27.927Z,22.70
2019-02-02T20:10:15.255Z,22.80
2019-02-02T20:13:01.051Z,22.90
2019-02-02T20:15:46.956Z,22.90
2019-02-02T20:18:32.783Z,22.90
2019-02-02T20:21:19.067Z,23.00
2019-02-02T20:24:05.291Z,23.00
2019-02-02T20:26:51.057Z,23.00
2019-02-02T20:29:36.928Z,23.00
2019-02-02T20:32:22.894Z,23.00
2019-02-02T20:35:09.556Z,23.00
2019-02-02T20:37:55.619Z,23.00
2019-02-02T20:40:41.336Z,22.90
2019-02-02T20:43:27.323Z,22.90
2019-02-02T20:46:13.607Z,22.90
2019-02-02T20:49:00.129Z,23.00
2019-02-02T20:51:46.111Z,23.00
2019-02-02T20:54:32.520Z,23.00
2019-02-02T20:57:18.616Z,23.10
2019-02-02T21:00:08.304Z,23.10
2019-02-02T21:02:54.176Z,23.10
2019-02-02T21:05:51.610Z,23.20
2019-02-02T21:08:27.838Z,23.10
2019-02-02T21:11:13.815Z,23.10
2019-02-02T21:14:00.291Z,23.10
2019-02-02T21:16:46.279Z,23.10
2019-02-02T21:19:32.467Z,23.10
2019-02-02T21:22:18.523Z,23.10
2019-02-02T21:25:05.311Z,23.00
2019-02-02T21:27:51.406Z,22.90
2019-02-02T21:30:37.170Z,22.90
2019-02-02T21:33:23.647Z,22.90
2019-02-02T21:36:09.375Z,23.00
2019-02-02T21:38:55.375Z,23.10
2019-02-02T21:41:41.599Z,23.10
2019-02-02T21:44:27.343Z,23.30
2019-02-02T21:47:14.107Z,23.30
2019-02-02T21:50:00.267Z,23.40
2019-02-02T21:52:46.254Z,23.40
2019-02-02T21:55:32.323Z,23.50
2019-02-02T21:58:18.791Z,23.50
2019-02-02T22:01:05.159Z,23.50
2019-02-02T22:03:51.475Z,23.40
2019-02-02T22:06:37.251Z,23.40
2019-02-02T22:09:22.943Z,23.40
2019-02-02T22:12:09.439Z,23.30
2019-02-02T22:14:55.261Z,23.30
2019-02-02T22:17:41.583Z,23.40
2019-02-02T22:20:27.719Z,23.40
2019-02-02T22:23:13.591Z,23.40
2019-02-02T22:25:59.432Z,23.40
2019-02-02T22:28:45.671Z,23.40
2019-02-02T22:31:31.651Z,23.30
2019-02-02T22:34:17.667Z,23.30
2019-02-02T22:37:03.975Z,23.30
2019-02-02T22:39:49.833Z,23.30
2019-02-02T22:42:35.863Z,23.30
2019-02-02T22:45:21.760Z,23.30
2019-02-02T22:48:07.560Z,23.30
2019-02-02T22:50:53.471Z,23.30
2019-02-02T22:53:39.275Z,23.30
2019-02-02T22:56:25.535Z,23.30
2019-02-02T22:59:11.752Z,23.30
2019-02-02T23:02:02.900Z,23.30
2019-02-02T23:05:26.766Z,23.30
2019-02-02T23:08:47.551Z,23.30
2019-02-02T23:12:09.179Z,23.30
2019-02-02T23:15:35.557Z,23.30
2019-02-02T23:18:22.123Z,23.30
2019-02-02T23:21:08.377Z,23.30
2019-02-02T23:23:54.471Z,23.30
2019-02-02T23:26:40.353Z,23.30
2019-02-02T23:29:26.648Z,23.30
2019-02-02T23:32:12.615Z,23.30
2019-02-02T23:34:58.867Z,23.30
2019-02-02T23:37:44.883Z,23.30
2019-02-02T23:40:30.651Z,23.30
2019-02-02T23:43:17.082Z,23.40
2019-02-02T23:46:02.933Z,23.40
2019-02-02T23:49:02.275Z,23.40
2019-02-02T23:51:48.227Z,23.50
2019-02-02T23:54:34.116Z,23.50
2019-02-02T23:57:20.007Z,23.60
